Gold Creek, Arkansas
Current Conditions -  °F | °C
As of 5:58 PM on Friday 21 Nov 2014 (Local Time) from KLRF Reporting Station
Haze Haze  
Wind Chill: 42°   Ceiling: 200
Heat Index: 46°   Visibility: 6mi
Dew Point: 46°   Wind: 8mph
Humidity: 99%   Direction: 60°ENE
Pressure: 30.26"   Gusts: NA
Location:  35.0822°N, 92.366°W
Report Text: KLRF 212358Z AUTO 06007KT 6SM BR OVC002 08/08 A3026 RMK AO2 RAB2312E2333DZB2313E2332 SLP251 P0000 60001 T00800079 10084 20063 50006
Loading
Personal Weather Stations






























Interactive Weather Map New forecast layout! Learn more

10-Day Weather Forecast

Advertisements
Track Severe Weather on mobile